Time;durP1;ratioP1;P1;durP2;ratioP2;P2;SDS_P1;SDS_P2;PMS_P1;PMS_P2;Temp;Humidity;BMP_temperature;BMP_pressure;BME280_temperature;BME280_humidity;BME280_pressure;Samples;Min_cycle;Max_cycle;Signal;HPM_P1;HPM_P2
2021/04/09 00:01:59;;;;;;;1.50;1.40;;;;;;;4.61;57.84;100265.28;6092532;29;20387;-72
2021/04/09 00:05:06;;;;;;;3.83;1.20;;;;;;;4.64;58.48;100259.47;6092416;29;20241;-72
2021/04/09 00:08:15;;;;;;;4.20;1.10;;;;;;;4.65;58.83;100263.84;6092204;29;20502;-72
2021/04/09 00:11:18;;;;;;;4.77;1.30;;;;;;;4.79;59.04;100245.91;6092635;29;20214;-72
2021/04/09 00:14:21;;;;;;;4.23;1.73;;;;;;;4.61;60.99;100235.56;6098172;29;20210;-72
2021/04/09 00:17:25;;;;;;;2.40;1.10;;;;;;;4.46;63.95;100240.19;6098239;29;20217;-72
2021/04/09 00:20:28;;;;;;;9.03;1.30;;;;;;;4.40;64.51;100240.94;6097776;29;20194;-72
2021/04/09 00:23:32;;;;;;;2.00;1.03;;;;;;;4.29;65.97;100236.03;6098132;29;20193;-72
2021/04/09 00:26:36;;;;;;;5.00;1.63;;;;;;;4.48;65.69;100224.59;6098073;29;20254;-73
2021/04/09 00:29:39;;;;;;;;;;;;;;;4.35;66.76;100216.38;6096999;29;20201;-73
2021/04/09 00:32:42;;;;;;;9.43;1.53;;;;;;;4.27;67.54;100208.38;6096837;29;20260;-72
2021/04/09 00:35:45;;;;;;;10.10;1.40;;;;;;;4.10;69.76;100197.00;6097689;29;20192;-72
2021/04/09 00:38:50;;;;;;;2.87;1.60;;;;;;;4.13;70.94;100196.63;6096565;29;20401;-71
2021/04/09 00:42:02;;;;;;;3.07;1.50;;;;;;;3.86;73.26;100196.50;6096900;29;20193;-72
2021/04/09 00:45:07;;;;;;;10.93;1.90;;;;;;;3.94;74.23;100175.63;6097403;29;20193;-72
2021/04/09 00:48:13;;;;;;;3.90;1.90;;;;;;;4.11;74.57;100170.84;6081389;29;20258;-72
2021/04/09 00:51:18;;;;;;;5.23;1.90;;;;;;;4.13;73.65;100158.00;6096273;29;20507;-72
2021/04/09 00:54:22;;;;;;;5.40;1.90;;;;;;;4.15;74.31;100153.22;6096373;29;20216;-73
2021/04/09 00:57:26;;;;;;;3.23;1.50;;;;;;;4.14;74.39;100138.03;6096139;29;20190;-72
2021/04/09 01:00:29;;;;;;;6.20;1.60;;;;;;;4.20;74.91;100139.97;6096654;29;20284;-73
2021/04/09 01:03:33;;;;;;;2.77;1.60;;;;;;;4.16;74.90;100131.41;6108607;23;20581;-72
2021/04/09 01:06:37;;;;;;;1.53;1.43;;;;;;;4.28;74.50;100123.66;6098323;29;20198;-72
2021/04/09 01:09:41;;;;;;;2.17;1.50;;;;;;;4.27;75.33;100116.56;6096731;29;20407;-72
2021/04/09 01:12:45;;;;;;;4.40;1.40;;;;;;;4.03;77.31;100108.88;6096779;29;20520;-72
2021/04/09 01:15:48;;;;;;;2.17;1.63;;;;;;;3.55;79.26;100121.19;6098001;29;20321;-73
2021/04/09 01:19:16;;;;;;;1.90;1.50;;;;;;;3.96;78.39;100086.38;6097101;29;20220;-73
2021/04/09 01:22:23;;;;;;;1.63;1.40;;;;;;;3.85;79.32;100095.00;6081267;29;20207;-72
2021/04/09 01:26:05;;;;;;;1.63;1.63;;;;;;;3.92;79.15;100095.88;6096722;29;20200;-72
2021/04/09 01:29:47;;;;;;;3.17;1.60;;;;;;;3.61;80.67;100078.13;6096424;29;20278;-72
2021/04/09 01:32:53;;;;;;;2.70;1.73;;;;;;;3.61;81.96;100078.13;6097505;29;20193;-72
2021/04/09 01:36:02;;;;;;;2.87;1.67;;;;;;;3.93;80.55;100073.28;6096599;29;20215;-72
2021/04/09 01:39:12;;;;;;;1.80;1.67;;;;;;;3.95;80.56;100057.72;6097205;29;20200;-72
2021/04/09 01:42:18;;;;;;;5.80;1.70;;;;;;;4.05;80.15;100055.53;6096258;29;20420;-73
2021/04/09 01:45:23;;;;;;;1.90;1.80;;;;;;;4.00;80.62;100037.22;6097289;29;20231;-73
2021/04/09 01:48:37;;;;;;;6.10;1.90;;;;;;;4.21;79.70;100025.56;6095967;29;20506;-72
2021/04/09 01:51:44;;;;;;;3.97;1.60;;;;;;;4.25;79.64;100021.44;6097148;29;20269;-73
2021/04/09 01:54:49;;;;;;;3.33;1.90;;;;;;;3.92;81.38;100014.94;6097171;29;20222;-72
2021/04/09 01:57:55;;;;;;;1.60;1.53;;;;;;;3.92;82.12;100009.53;6096845;29;20193;-72
2021/04/09 02:01:00;;;;;;;3.03;1.70;;;;;;;4.14;81.26;99997.66;6097068;29;20196;-73
2021/04/09 02:04:05;;;;;;;2.67;1.63;;;;;;;3.96;82.26;99991.91;6096435;29;20287;-71
2021/04/09 02:07:09;;;;;;;5.77;2.07;;;;;;;4.07;81.19;99980.59;6078965;29;20208;-72
2021/04/09 02:10:15;;;;;;;3.77;1.67;;;;;;;3.93;81.30;99968.03;6096776;29;20221;-72
2021/04/09 02:13:18;;;;;;;3.60;1.63;;;;;;;4.17;81.75;99970.28;6095509;29;20386;-72
2021/04/09 02:16:23;;;;;;;2.20;1.40;;;;;;;4.23;81.15;99958.72;6095431;29;20249;-72
2021/04/09 02:19:27;;;;;;;1.80;1.67;;;;;;;4.29;80.81;99947.09;6078897;29;20213;-72
2021/04/09 02:22:31;;;;;;;4.00;1.70;;;;;;;4.35;80.48;99940.91;6096396;29;20192;-72
2021/04/09 02:25:34;;;;;;;1.63;1.50;;;;;;;4.31;79.72;99932.38;6096235;29;20196;-72
2021/04/09 02:28:39;;;;;;;2.67;1.80;;;;;;;4.43;80.25;99922.69;6095087;29;20204;-72
2021/04/09 02:31:43;;;;;;;6.33;2.17;;;;;;;4.25;80.39;99908.03;6096328;29;20232;-72
2021/04/09 02:34:47;;;;;;;3.03;2.03;;;;;;;4.18;80.95;99904.47;6095863;29;20195;-71
2021/04/09 02:37:52;;;;;;;2.37;2.00;;;;;;;4.23;80.98;99899.31;6096290;29;20262;-72
2021/04/09 02:41:00;;;;;;;2.83;2.00;;;;;;;4.18;81.74;99890.97;6095847;29;20214;-72
2021/04/09 02:44:04;;;;;;;2.23;2.00;;;;;;;3.88;82.13;99884.13;6095706;29;20200;-73
2021/04/09 02:47:14;;;;;;;4.70;2.50;;;;;;;3.77;83.08;99867.44;6094712;29;20422;-72
2021/04/09 02:50:25;;;;;;;3.20;2.00;;;;;;;4.09;83.00;99859.75;6094533;29;20416;-72
2021/04/09 02:53:29;;;;;;;3.50;2.10;;;;;;;4.05;83.36;99845.00;6094611;29;20195;-72
2021/04/09 02:56:33;;;;;;;3.33;2.13;;;;;;;3.91;82.94;99818.97;6095400;29;20193;-73
2021/04/09 02:59:37;;;;;;;2.77;2.57;;;;;;;3.89;83.23;99821.03;6094541;29;20448;-73
2021/04/09 03:02:41;;;;;;;2.40;2.30;;;;;;;4.04;82.75;99824.44;6095164;29;20241;-73
2021/04/09 03:05:48;;;;;;;3.33;2.20;;;;;;;4.14;82.22;99830.31;6095234;29;20335;-72
2021/04/09 03:08:52;;;;;;;2.47;2.30;;;;;;;4.12;82.60;99816.19;6094097;29;20437;-73
2021/04/09 03:11:55;;;;;;;4.97;2.30;;;;;;;4.15;82.50;99815.78;6094133;29;20389;-72
2021/04/09 03:15:00;;;;;;;3.97;2.10;;;;;;;4.31;81.74;99801.94;6093995;29;20195;-72
2021/04/09 03:18:08;;;;;;;2.40;2.20;;;;;;;4.38;81.22;99786.59;6095270;29;20257;-72
2021/04/09 03:21:12;;;;;;;4.07;2.40;;;;;;;4.29;81.04;99801.28;6094881;29;20227;-72
2021/04/09 03:24:15;;;;;;;2.17;2.03;;;;;;;4.49;80.07;99779.78;6093861;29;20252;-72
2021/04/09 03:27:18;;;;;;;3.10;2.30;;;;;;;4.48;80.22;99805.13;6095014;29;20193;-73
2021/04/09 03:30:23;;;;;;;3.03;2.07;;;;;;;4.43;80.15;99781.41;6094627;29;20296;-72
2021/04/09 03:33:27;;;;;;;2.10;2.10;;;;;;;4.27;80.59;99779.06;6094771;29;20226;-72
2021/04/09 03:36:31;;;;;;;6.77;1.87;;;;;;;4.30;81.15;99762.47;6094615;29;20261;-72
2021/04/09 03:39:34;;;;;;;5.07;2.13;;;;;;;4.39;80.69;99753.16;6095006;29;20197;-72
2021/04/09 03:42:38;;;;;;;3.10;2.20;;;;;;;4.33;80.91;99737.78;6094809;29;20201;-72
2021/04/09 03:45:41;;;;;;;2.37;1.90;;;;;;;4.25;81.37;99719.06;6093576;29;20443;-72
2021/04/09 03:48:44;;;;;;;2.40;2.20;;;;;;;4.23;80.95;99726.53;6094018;29;20397;-73
2021/04/09 03:51:49;;;;;;;2.13;1.73;;;;;;;4.40;80.73;99717.84;6094790;29;20286;-72
2021/04/09 03:54:53;;;;;;;3.60;1.90;;;;;;;4.42;80.15;99725.72;6094480;29;20191;-72
2021/04/09 03:57:56;;;;;;;3.53;2.00;;;;;;;4.56;79.25;99688.78;6093547;29;20195;-72
2021/04/09 04:00:59;;;;;;;3.10;2.00;;;;;;;4.57;80.14;99699.38;6094372;29;20195;-72
2021/04/09 04:04:03;;;;;;;1.87;1.77;;;;;;;4.61;80.19;99697.94;6093948;29;20482;-72
2021/04/09 04:07:07;;;;;;;1.93;1.83;;;;;;;4.71;79.79;99687.56;6094625;29;20258;-72
2021/04/09 04:10:11;;;;;;;3.50;1.60;;;;;;;4.60;79.14;99669.25;6093208;29;20455;-72
2021/04/09 04:13:14;;;;;;;2.37;2.27;;;;;;;4.60;80.81;99668.41;6093231;29;20208;-73
2021/04/09 04:16:17;;;;;;;2.07;2.03;;;;;;;4.71;80.50;99660.53;6094507;29;20192;-73
2021/04/09 04:19:20;;;;;;;4.43;2.00;;;;;;;4.73;80.01;99668.41;6094077;29;20230;-72
2021/04/09 04:22:24;;;;;;;2.37;1.67;;;;;;;4.79;79.31;99646.81;6094103;29;20273;-72
2021/04/09 04:25:27;;;;;;;2.00;1.90;;;;;;;4.68;80.41;99655.53;6094302;29;20193;-71
2021/04/09 04:28:45;;;;;;;1.80;1.70;;;;;;;4.82;79.53;99646.41;6093018;29;20475;-72
2021/04/09 04:31:49;;;;;;;2.07;1.70;;;;;;;4.69;80.63;99638.31;6094273;29;20249;-71
2021/04/09 04:34:52;;;;;;;1.80;1.80;;;;;;;4.75;80.37;99634.75;6093844;29;20312;-72
2021/04/09 04:37:58;;;;;;;2.87;1.77;;;;;;;4.79;80.35;99627.91;6094199;29;20191;-72
2021/04/09 04:41:02;;;;;;;2.80;1.80;;;;;;;4.86;79.83;99620.63;6094202;29;20195;-72
2021/04/09 04:44:07;;;;;;;;;;;;;;;4.91;80.48;99623.53;6094683;29;19959;-72
2021/04/09 04:47:15;;;;;;;4.85;1.95;;;;;;;4.98;79.70;99612.72;6094507;29;19938;-72
2021/04/09 04:50:18;;;;;;;1.97;1.50;;;;;;;5.01;79.46;99606.88;6093851;29;20197;-71
2021/04/09 04:53:22;;;;;;;;;;;;;;;5.18;79.05;99607.25;6093296;29;20102;-72
2021/04/09 04:56:25;;;;;;;;;;;;;;;5.17;79.70;99584.78;6094543;29;19926;-72
2021/04/09 04:59:28;;;;;;;;;;;;;;;5.20;79.25;99578.13;6094675;29;20104;-71
2021/04/09 05:02:31;;;;;;;1.73;1.40;;;;;;;5.20;79.40;99578.97;6097564;29;20277;-71
2021/04/09 05:05:34;;;;;;;4.50;1.80;;;;;;;5.25;78.88;99575.63;6096836;29;20523;-72
2021/04/09 05:08:38;;;;;;;2.77;1.33;;;;;;;5.27;79.07;99578.94;6097773;29;20199;-73
2021/04/09 05:11:42;;;;;;;1.40;1.40;;;;;;;5.50;78.52;99574.69;6096811;29;20559;-73
2021/04/09 05:14:45;;;;;;;1.30;1.20;;;;;;;5.39;78.06;99561.03;6096677;29;20420;-73
2021/04/09 05:17:48;;;;;;;5.20;1.20;;;;;;;5.23;78.90;99556.91;6097830;29;20193;-72
2021/04/09 05:20:52;;;;;;;1.37;1.30;;;;;;;5.42;78.31;99556.00;6097584;29;20241;-71
2021/04/09 05:23:56;;;;;;;5.07;1.30;;;;;;;5.39;78.41;99558.31;6097711;29;20259;-71
2021/04/09 05:26:59;;;;;;;3.80;1.50;;;;;;;5.38;78.33;99548.53;6096404;29;20419;-71
2021/04/09 05:30:02;;;;;;;1.40;1.23;;;;;;;5.37;78.81;99536.88;6097605;29;20319;-72
2021/04/09 05:33:06;;;;;;;1.50;1.20;;;;;;;5.39;78.71;99555.63;6097585;29;20287;-72
2021/04/09 05:36:11;;;;;;;2.27;1.37;;;;;;;5.38;78.88;99548.53;6098331;29;20198;-72
2021/04/09 05:39:15;;;;;;;4.93;1.40;;;;;;;5.50;78.76;99544.09;6097593;29;20193;-72
2021/04/09 05:42:18;;;;;;;1.30;1.20;;;;;;;5.63;78.23;99541.34;6097148;29;20197;-71
2021/04/09 05:45:21;;;;;;;1.20;1.20;;;;;;;5.67;78.22;99529.03;6095934;29;20420;-71
2021/04/09 05:48:33;;;;;;;1.50;1.30;;;;;;;5.64;78.17;99510.53;6096911;29;20233;-71
2021/04/09 05:51:37;;;;;;;2.60;1.80;;;;;;;5.48;78.57;99484.81;6095780;29;20248;-72
2021/04/09 05:54:42;;;;;;;1.23;1.23;;;;;;;5.60;78.18;99504.72;6096751;29;20233;-72
2021/04/09 05:57:45;;;;;;;4.53;1.50;;;;;;;5.82;77.18;99507.94;6096655;29;20193;-72
2021/04/09 06:00:48;;;;;;;2.40;1.80;;;;;;;5.79;77.23;99497.53;6096669;29;20225;-72
2021/04/09 06:03:52;;;;;;;1.40;1.40;;;;;;;5.98;76.66;99491.19;6097144;29;20292;-72
2021/04/09 06:06:55;;;;;;;1.60;1.60;;;;;;;5.81;77.00;99490.00;6095520;29;20193;-72
2021/04/09 06:10:03;;;;;;;2.63;1.67;;;;;;;5.90;77.51;99482.50;6094722;29;20192;-73
2021/04/09 06:13:07;;;;;;;1.93;1.60;;;;;;;6.02;77.08;99470.75;6095165;29;20217;-73
2021/04/09 06:16:10;;;;;;;2.17;1.70;;;;;;;5.88;77.05;99485.41;6095962;29;20192;-72
2021/04/09 06:19:14;;;;;;;1.87;1.70;;;;;;;5.90;77.75;99494.16;6095096;29;20452;-72
2021/04/09 06:22:17;;;;;;;1.50;1.47;;;;;;;5.99;76.75;99481.16;6096013;29;20204;-71
2021/04/09 06:25:23;;;;;;;1.30;1.30;;;;;;;6.01;76.24;99469.06;6096268;29;20192;-71
2021/04/09 06:28:26;;;;;;;1.50;1.40;;;;;;;6.07;76.50;99473.63;6095914;29;20192;-71
2021/04/09 06:31:30;;;;;;;1.30;1.30;;;;;;;6.25;75.76;99464.72;6095999;29;20224;-72
2021/04/09 06:34:33;;;;;;;;;;;;;;;6.18;76.00;99464.78;6095555;29;20192;-72
2021/04/09 06:37:59;;;;;;;2.37;1.53;;;;;;;6.15;75.81;99464.38;6081330;29;20293;-72
2021/04/09 06:41:03;;;;;;;1.83;1.30;;;;;;;6.36;74.90;99438.78;6095839;29;20189;-72
2021/04/09 06:44:09;;;;;;;3.60;1.60;;;;;;;6.30;74.37;99430.50;6095713;29;20197;-73
2021/04/09 06:47:12;;;;;;;1.50;1.50;;;;;;;6.38;74.71;99425.81;6095299;29;20200;-73
2021/04/09 06:50:17;;;;;;;1.50;1.50;;;;;;;6.59;73.98;99406.44;6078959;29;20273;-72
2021/04/09 06:53:21;;;;;;;1.70;1.70;;;;;;;6.55;73.81;99407.94;6094764;29;20335;-72
2021/04/09 06:56:26;;;;;;;2.57;1.70;;;;;;;6.49;73.71;99406.13;6095615;29;20189;-72
2021/04/09 06:59:30;;;;;;;;;;;;;;;6.49;74.36;99396.13;6095039;29;20193;-72
2021/04/09 07:02:33;;;;;;;;;;;;;;;6.59;74.10;99395.59;6095361;29;19963;-73
2021/04/09 07:05:37;;;;;;;;;;;;;;;6.72;73.73;99392.72;6096210;29;19926;-73
2021/04/09 07:08:40;;;;;;;;;;;;;;;6.68;74.45;99377.97;6095725;29;19920;-71
2021/04/09 07:11:49;;;;;;;;;;;;;;;6.56;75.70;99390.63;6095411;29;19919;-71
2021/04/09 07:14:53;;;;;;;;;;;;;;;6.74;75.55;99393.31;6077736;29;19962;-72
2021/04/09 07:17:56;;;;;;;;;;;;;;;6.49;76.82;99389.88;6095338;29;19919;-72
2021/04/09 07:20:59;;;;;;;;;;;;;;;6.59;77.48;99390.19;6095407;29;19919;-71
2021/04/09 07:24:18;;;;;;;;;;;;;;;6.53;78.88;99389.19;6095810;29;19926;-71
2021/04/09 07:27:22;;;;;;;;;;;;;;;6.36;79.33;99390.84;6095658;29;19923;-71
2021/04/09 07:30:27;;;;;;;;;;;;;;;6.29;80.05;99396.31;6095045;29;19954;-71
2021/04/09 07:33:30;;;;;;;;;;;;;;;6.38;80.79;99406.88;6093887;29;19970;-71
2021/04/09 07:36:33;;;;;;;;;;;;;;;6.26;81.42;99412.22;6094977;29;19967;-73
2021/04/09 07:39:36;;;;;;;;;;;;;;;6.44;80.94;99414.09;6078064;29;19926;-70
2021/04/09 07:42:42;;;;;;;;;;;;;;;6.37;82.25;99402.53;6078158;29;20080;-71
2021/04/09 07:45:45;;;;;;;;;;;;;;;6.32;81.68;99417.53;6093932;29;20091;-71
2021/04/09 07:48:49;;;;;;;;;;;;;;;6.54;81.72;99420.66;6094564;29;19942;-71
2021/04/09 07:52:08;;;;;;;;;;;;;;;6.47;80.81;99424.50;6093639;29;20198;-71
2021/04/09 07:55:15;;;;;;;;;;;;;;;6.49;81.17;99427.81;6094830;29;19919;-72
2021/04/09 07:58:19;;;;;;;;;;;;;;;6.20;82.39;99423.94;6094595;29;19935;-71
2021/04/09 08:01:23;;;;;;;;;;;;;;;6.26;83.26;99423.88;6093786;29;19919;-72
2021/04/09 08:04:34;;;;;;;;;;;;;;;6.17;83.21;99422.50;6093539;29;20019;-71
2021/04/09 08:07:39;;;;;;;;;;;;;;;6.03;84.52;99412.84;6093883;29;19919;-72
2021/04/09 08:10:43;;;;;;;;;;;;;;;5.88;83.81;99404.22;6094792;29;19923;-71
2021/04/09 08:13:56;;;;;;;;;;;;;;;5.64;84.28;99396.91;6094907;29;19919;-71
2021/04/09 08:17:10;;;;;;;;;;;;;;;5.44;86.31;99407.88;6093752;29;19950;-71
2021/04/09 08:20:14;;;;;;;;;;;;;;;5.49;85.61;99409.91;6094092;29;19968;-70
2021/04/09 08:23:17;;;;;;;;;;;;;;;5.48;84.69;99402.84;6093557;29;20202;-71
2021/04/09 08:26:20;;;;;;;;;;;;;;;5.68;85.27;99396.22;6094977;29;19919;-71
2021/04/09 08:29:24;;;;;;;;;;;;;;;5.47;83.93;99384.97;6094513;29;19988;-71
2021/04/09 08:32:30;;;;;;;;;;;;;;;5.62;84.52;99382.78;6094466;29;19919;-71
2021/04/09 08:35:33;;;;;;;;;;;;;;;5.50;84.35;99390.75;6098548;29;19955;-71
2021/04/09 08:38:36;;;;;;;;;;;;;;;5.40;85.46;99386.88;6099032;29;19927;-72
2021/04/09 08:41:40;;;;;;;;;;;;;;;5.48;85.16;99389.31;6098966;29;19923;-72
2021/04/09 08:44:44;;;;;;;;;;;;;;;5.46;84.26;99388.72;6098453;29;19934;-71
2021/04/09 08:47:54;;;;;;;;;;;;;;;5.33;83.69;99367.16;6097739;29;19926;-71
2021/04/09 08:50:57;;;;;;;1.77;1.67;;;;;;;5.45;84.49;99387.03;6097702;29;19974;-71
2021/04/09 08:54:15;;;;;;;;;;;;;;;5.50;85.56;99379.09;6098240;29;20246;-72
2021/04/09 08:57:32;;;;;;;;;;;;;;;5.52;84.88;99361.59;6097679;29;19942;-71
2021/04/09 09:00:36;;;;;;;;;;;;;;;5.78;82.00;99371.38;6097538;29;20257;-71
2021/04/09 09:03:40;;;;;;;;;;;;;;;5.57;84.81;99363.66;6097845;29;19924;-71
2021/04/09 09:06:42;;;;;;;;;;;;;;;5.73;83.75;99354.97;6097319;29;19923;-70
2021/04/09 09:09:47;;;;;;;;;;;;;;;5.74;83.30;99343.09;6081655;29;19920;-71
2021/04/09 09:13:19;;;;;;;;;;;;;;;5.88;82.86;99358.19;6098464;29;19919;-71
2021/04/09 09:16:24;;;;;;;;;;;;;;;6.07;82.88;99376.16;6097227;29;19931;-71
2021/04/09 09:19:37;;;;;;;;;;;;;;;6.03;82.42;99380.38;6098238;29;19919;-71
2021/04/09 09:22:46;;;;;;;;;;;;;;;6.15;81.20;99383.97;6097637;29;19919;-71
2021/04/09 09:25:49;;;;;;;;;;;;;;;6.03;81.28;99380.38;6098037;29;19926;-71
2021/04/09 09:29:16;;;;;;;;;;;;;;;6.02;80.92;99378.69;6097884;29;19924;-71
2021/04/09 09:32:30;;;;;;;;;;;;;;;5.97;79.79;99370.41;6096888;29;20163;-71
2021/04/09 09:35:52;;;;;;;;;;;;;;;5.79;79.80;99356.81;6096733;29;20206;-70
2021/04/09 09:38:55;;;;;;;;;;;;;;;6.12;79.38;99335.69;6097722;29;19923;-70
2021/04/09 09:41:59;;;;;;;;;;;;;;;6.32;78.45;99340.06;6098020;29;19952;-72
2021/04/09 09:45:03;;;;;;;;;;;;;;;6.08;79.10;99369.69;6096754;29;19920;-71
2021/04/09 09:48:19;;;;;;;;;;;;;;;6.21;79.36;99388.47;6096372;29;20202;-72
2021/04/09 09:51:27;;;;;;;;;;;;;;;6.21;79.50;99398.50;6097279;29;19990;-72
2021/04/09 09:54:31;;;;;;;;;;;;;;;6.22;79.87;99384.72;6096715;29;19923;-72
2021/04/09 09:57:48;;;;;;;;;;;;;;;6.18;79.20;99372.72;6097276;29;19926;-72
2021/04/09 10:00:53;;;;;;;;;;;;;;;5.86;80.08;99386.53;6096207;29;20139;-72
2021/04/09 10:03:57;;;;;;;2.83;1.30;;;;;;;5.98;79.52;99379.38;6095871;29;20126;-70
2021/04/09 10:07:07;;;;;;;;;;;;;;;6.09;79.08;99376.75;6096980;29;20080;-73
2021/04/09 10:10:14;;;;;;;;;;;;;;;6.14;79.49;99368.78;6096894;29;19919;-72
2021/04/09 10:13:19;;;;;;;;;;;;;;;6.54;77.35;99373.78;6095888;29;20298;-71
2021/04/09 10:16:23;;;;;;;;;;;;;;;6.69;78.04;99380.47;6095790;29;20177;-70
2021/04/09 10:19:27;;;;;;;;;;;;;;;6.52;76.64;99373.19;6097113;29;19919;-71
2021/04/09 10:22:30;;;;;;;;;;;;;;;6.58;77.78;99373.09;6096802;29;19927;-72
2021/04/09 10:25:34;;;;;;;;;;;;;;;6.77;75.52;99360.34;6095295;29;20199;-71
2021/04/09 10:28:38;;;;;;;;;;;;;;;6.86;75.73;99358.97;6095417;29;19919;-71
2021/04/09 10:31:40;;;;;;;;;;;;;;;6.78;74.80;99362.00;6095623;29;20000;-71
2021/04/09 10:34:47;;;;;;;;;;;;;;;7.15;74.17;99351.91;6095490;29;19926;-71
2021/04/09 10:38:07;;;;;;;;;;;;;;;7.19;73.60;99336.84;6095458;29;20156;-71
2021/04/09 10:41:21;;;;;;;;;;;;;;;6.91;72.61;99334.72;6095456;29;19979;-71
2021/04/09 10:44:25;;;;;;;;;;;;;;;6.86;72.58;99342.72;6096260;29;19960;-71
2021/04/09 10:47:30;;;;;;;;;;;;;;;6.81;73.45;99345.28;6095032;29;19927;-71
2021/04/09 10:50:49;;;;;;;;;;;;;;;7.22;73.15;99337.19;6095017;29;20146;-71
2021/04/09 10:53:54;;;;;;;;;;;;;;;7.41;72.33;99333.34;6095874;29;19963;-73
2021/04/09 10:56:59;;;;;;;4.30;1.40;;;;;;;6.97;70.98;99339.22;6093818;29;19962;-72
2021/04/09 11:00:06;;;;;;;4.07;1.80;;;;;;;7.14;70.54;99328.56;6095644;29;20193;-72
2021/04/09 11:03:18;;;;;;;5.73;1.30;;;;;;;7.18;69.71;99327.88;6077825;29;20276;-72
2021/04/09 11:06:23;;;;;;;1.70;1.57;;;;;;;7.37;69.60;99313.16;6078642;29;20209;-72
2021/04/09 11:09:38;;;;;;;5.43;1.53;;;;;;;7.55;68.49;99320.38;6094089;29;20268;-72
2021/04/09 11:12:45;;;;;;;1.57;1.47;;;;;;;7.71;68.29;99308.00;6095444;29;20213;-72
2021/04/09 11:15:48;;;;;;;;;;;;;;;7.72;66.30;99320.53;6095677;29;20048;-72
2021/04/09 11:18:53;;;;;;;;;;;;;;;7.58;67.52;99309.91;6094510;29;20197;-71
2021/04/09 11:21:58;;;;;;;;;;;;;;;7.93;66.14;99300.94;6095027;29;19955;-72
2021/04/09 11:25:04;;;;;;;6.27;1.70;;;;;;;8.12;65.51;99283.44;6094007;29;20215;-71
2021/04/09 11:28:20;;;;;;;4.13;1.50;;;;;;;8.20;64.44;99288.50;6093737;29;20174;-71
2021/04/09 11:31:25;;;;;;;5.30;1.42;;;;;;;8.25;64.01;99266.88;6093905;29;20190;-71
2021/04/09 11:34:35;;;;;;;6.30;1.73;;;;;;;8.40;63.64;99253.63;6094646;29;20357;-71
2021/04/09 11:37:46;;;;;;;;;;;;;;;8.44;63.31;99243.94;6095166;29;20160;-72
2021/04/09 11:40:49;;;;;;;;;;;;;;;8.54;62.78;99248.75;6094094;29;19983;-71
2021/04/09 11:43:53;;;;;;;3.40;1.48;;;;;;;8.30;62.80;99237.13;6094151;29;20199;-71
2021/04/09 11:47:12;;;;;;;4.50;1.30;;;;;;;8.19;64.88;99263.22;6076231;29;20205;-71
2021/04/09 11:50:17;;;;;;;5.38;1.58;;;;;;;7.86;69.41;99278.50;6093362;29;20412;-71
2021/04/09 11:53:22;;;;;;;4.50;1.15;;;;;;;7.68;72.95;99251.50;6094249;29;20217;-71
2021/04/09 11:56:39;;;;;;;5.47;1.40;;;;;;;7.28;75.32;99303.72;6093748;29;20245;-71
2021/04/09 11:59:42;;;;;;;2.72;1.10;;;;;;;7.03;78.43;99294.94;6094681;29;20238;-71
2021/04/09 12:02:49;;;;;;;1.60;1.10;;;;;;;7.13;78.71;99295.19;6093710;29;20449;-71
2021/04/09 12:06:09;;;;;;;;;;;;;;;7.25;79.32;99279.78;6077311;29;20205;-71
2021/04/09 12:09:12;;;;;;;;;;;;;;;7.21;80.92;99267.75;6096811;29;20536;-71
2021/04/09 12:12:16;;;;;;;;;;;;;;;7.47;79.48;99286.28;6098492;29;19919;-71
2021/04/09 12:15:21;;;;;;;;;;;;;;;7.20;79.96;99268.78;6098535;29;19926;-72
2021/04/09 12:18:24;;;;;;;;;;;;;;;7.44;80.03;99262.34;6098674;29;19954;-71
2021/04/09 12:21:27;;;;;;;;;;;;;;;7.60;79.57;99260.00;6099134;29;19919;-71
2021/04/09 12:24:31;;;;;;;;;;;;;;;7.79;76.79;99254.19;6098392;29;19982;-71
2021/04/09 12:27:34;;;;;;;;;;;;;;;8.07;75.43;99248.03;6099529;29;19919;-71
2021/04/09 12:30:37;;;;;;;;;;;;;;;7.99;74.71;99245.66;6098914;29;19960;-71
2021/04/09 12:33:40;;;;;;;;;;;;;;;8.02;74.50;99245.19;6098050;29;20189;-75
2021/04/09 12:36:43;;;;;;;;;;;;;;;8.08;75.20;99244.25;6099472;29;19986;-71
2021/04/09 12:39:46;;;;;;;;;;;;;;;7.82;76.02;99250.19;6098199;29;20209;-72
2021/04/09 12:42:49;;;;;;;;;;;;;;;7.65;78.89;99268.25;6099030;29;19928;-71
2021/04/09 12:45:52;;;;;;;;;;;;;;;7.68;77.69;99255.03;6082256;29;19924;-71
2021/04/09 12:48:55;;;;;;;;;;;;;;;7.93;77.46;99247.47;6097930;29;20209;-71
2021/04/09 12:51:59;;;;;;;;;;;;;;;7.92;77.78;99234.13;6098990;29;19919;-71
2021/04/09 12:55:03;;;;;;;;;;;;;;;8.01;75.03;99232.69;6098418;29;19965;-71
2021/04/09 12:58:08;;;;;;;;;;;;;;;8.12;72.09;99223.69;6097218;29;19959;-70
2021/04/09 13:01:11;;;;;;;;;;;;;;;8.31;68.49;99232.53;6098436;29;19920;-71
2021/04/09 13:04:14;;;;;;;;;;;;;;;8.37;67.68;99231.56;6092965;29;19920;-71
2021/04/09 13:07:18;;;;;;;4.28;1.52;;;;;;;8.44;67.29;99221.38;6098659;29;19927;-71
2021/04/09 13:10:32;;;;;;;3.03;1.50;;;;;;;8.43;62.62;99231.41;6097752;29;20197;-72
2021/04/09 13:13:35;;;;;;;2.70;1.40;;;;;;;8.50;61.67;99220.44;6098047;29;20217;-72
2021/04/09 13:16:38;;;;;;;1.80;1.40;;;;;;;8.57;62.68;99211.06;6097958;29;20237;-72
2021/04/09 13:19:41;;;;;;;4.57;1.50;;;;;;;8.51;61.10;99206.59;6095441;29;20479;-72
2021/04/09 13:22:46;;;;;;;2.13;1.47;;;;;;;8.62;59.10;99203.00;6096542;29;20496;-72
2021/04/09 13:25:50;;;;;;;2.72;1.23;;;;;;;8.85;60.24;99212.91;6096708;29;20212;-72
2021/04/09 13:28:53;;;;;;;3.80;1.38;;;;;;;8.95;59.35;99199.50;6097254;29;20190;-72
2021/04/09 13:31:57;;;;;;;3.22;1.52;;;;;;;8.79;57.30;99203.84;6097419;29;20228;-72
2021/04/09 13:35:02;;;;;;;3.75;1.27;;;;;;;8.98;57.34;99200.91;6095410;29;20292;-72
2021/04/09 13:38:11;;;;;;;4.53;1.45;;;;;;;8.90;55.48;99195.84;6097296;29;20256;-72
2021/04/09 13:41:16;;;;;;;5.43;1.50;;;;;;;9.16;56.45;99204.22;6096387;29;20189;-72
2021/04/09 13:44:19;;;;;;;6.22;1.65;;;;;;;9.24;54.92;99216.59;6096997;29;20181;-72
2021/04/09 13:47:22;;;;;;;4.68;1.77;;;;;;;9.29;54.22;99194.91;6097207;29;20261;-72
2021/04/09 13:50:26;;;;;;;4.28;1.35;;;;;;;9.27;53.94;99199.75;6095824;29;20205;-72
2021/04/09 13:53:30;;;;;;;5.18;1.60;;;;;;;9.22;54.71;99199.66;6096787;29;20213;-71
2021/04/09 13:56:34;;;;;;;4.43;1.70;;;;;;;9.26;53.23;99203.56;6095449;29;20417;-71
2021/04/09 13:59:37;;;;;;;4.53;1.65;;;;;;;9.30;53.34;99212.84;6096616;29;20190;-71
2021/04/09 14:02:40;;;;;;;2.42;1.70;;;;;;;9.23;51.43;99212.19;6096439;29;20234;-72
2021/04/09 14:05:43;;;;;;;2.25;1.60;;;;;;;9.15;51.42;99212.59;6095591;29;20366;-72
2021/04/09 14:08:47;;;;;;;3.78;1.40;;;;;;;9.26;51.60;99195.38;6096218;29;20228;-72
2021/04/09 14:11:51;;;;;;;2.05;1.50;;;;;;;9.25;51.67;99223.66;6096522;29;20275;-72
2021/04/09 14:14:54;;;;;;;4.50;1.60;;;;;;;9.26;51.72;99209.00;6078413;29;20232;-72
2021/04/09 14:17:57;;;;;;;4.72;1.60;;;;;;;9.30;51.44;99223.75;6095330;29;20190;-72
2021/04/09 14:21:01;;;;;;;3.05;1.40;;;;;;;9.10;51.45;99216.06;6096053;29;20193;-72
2021/04/09 14:24:06;;;;;;;4.00;1.38;;;;;;;9.24;51.18;99227.47;6096036;29;20224;-72
2021/04/09 14:27:10;;;;;;;8.15;1.73;;;;;;;9.17;50.71;99224.06;6095498;29;20229;-72
2021/04/09 14:30:17;;;;;;;7.18;1.50;;;;;;;9.29;51.57;99233.00;6094854;29;20480;-72
2021/04/09 14:33:22;;;;;;;4.22;1.60;;;;;;;9.32;49.59;99236.03;6096113;29;20270;-72
2021/04/09 14:36:25;;;;;;;4.32;1.38;;;;;;;9.19;49.75;99241.00;6095719;29;20190;-72
2021/04/09 14:39:28;;;;;;;4.50;1.63;;;;;;;9.16;49.23;99246.91;6096019;29;20261;-72
2021/04/09 14:42:36;;;;;;;4.22;1.60;;;;;;;9.22;48.29;99245.91;6095592;29;20190;-72
2021/04/09 14:45:42;;;;;;;3.15;1.50;;;;;;;9.32;49.12;99251.56;6094392;29;20194;-72
2021/04/09 14:48:45;;;;;;;7.13;1.70;;;;;;;9.32;49.75;99246.91;6095535;29;20189;-71
2021/04/09 14:51:48;;;;;;;7.43;1.90;;;;;;;9.22;48.94;99260.34;6095254;29;20196;-71
2021/04/09 14:54:52;;;;;;;2.20;1.40;;;;;;;9.31;49.49;99266.22;6094104;29;20361;-72
2021/04/09 14:57:56;;;;;;;6.85;1.77;;;;;;;9.43;49.76;99259.63;6095394;29;20190;-72
2021/04/09 15:01:00;;;;;;;3.03;1.60;;;;;;;9.27;49.22;99265.88;6094885;29;20222;-72
2021/04/09 15:04:03;;;;;;;9.70;1.70;;;;;;;9.27;48.92;99275.97;6094333;29;20233;-73
2021/04/09 15:07:07;;;;;;;4.78;1.42;;;;;;;9.11;48.37;99282.19;6095228;29;20252;-72
2021/04/09 15:10:11;;;;;;;4.28;1.60;;;;;;;9.04;47.96;99276.09;6095292;29;20190;-71
2021/04/09 15:13:15;;;;;;;9.63;1.70;;;;;;;9.19;47.33;99284.53;6077371;29;20212;-71
2021/04/09 15:16:18;;;;;;;3.95;1.45;;;;;;;9.27;47.50;99284.94;6094678;29;20193;-71